Time;durP1;ratioP1;P1;durP2;ratioP2;P2;SDS_P1;SDS_P2;PMS_P1;PMS_P2;Temp;Humidity;BMP_temperature;BMP_pressure;BME280_temperature;BME280_humidity;BME280_pressure;Samples;Min_cycle;Max_cycle;Signal;HPM_P1;HPM_P2
2023/06/20 00:01:36;;;;;;;5.53;4.32;;;18.90;84.20;;;17.86;71.84;100090.81;12410838;23;96762;-90
2023/06/20 00:06:40;;;;;;;5.40;4.63;;;18.80;84.40;;;17.83;73.09;100087.75;12385939;23;96808;-90
2023/06/20 00:11:43;;;;;;;5.03;4.53;;;18.80;84.70;;;17.81;72.45;100096.06;12408442;23;97443;-90
2023/06/20 00:16:47;;;;;;;6.15;4.82;;;18.80;84.60;;;17.77;71.96;100096.69;12384638;23;96416;-90
2023/06/20 00:21:51;;;;;;;6.43;5.22;;;18.70;84.60;;;17.70;72.40;100099.41;12383455;23;96480;-90
2023/06/20 00:26:56;;;;;;;7.15;5.47;;;18.70;85.00;;;17.56;72.64;100103.19;12384602;23;96714;-90
2023/06/20 00:31:59;;;;;;;7.55;5.88;;;18.50;85.50;;;17.48;72.61;100098.91;12410025;23;96484;-90
2023/06/20 00:37:03;;;;;;;7.10;4.95;;;18.40;85.70;;;17.42;72.41;100097.06;12386189;23;96492;-90
2023/06/20 00:42:23;;;;;;;5.60;4.57;;;18.30;85.80;;;17.48;72.57;100096.22;12414492;23;96368;-89
2023/06/20 00:47:27;;;;;;;5.63;4.07;;;18.40;85.80;;;17.46;72.41;100084.88;12411345;23;96443;-90
2023/06/20 00:52:32;;;;;;;4.93;4.43;;;18.50;85.70;;;17.54;72.64;100106.09;12411150;23;96564;-89
2023/06/20 00:57:37;;;;;;;5.70;4.60;;;18.50;85.70;;;17.56;72.92;100101.31;12412281;23;96421;-90
2023/06/20 01:02:46;;;;;;;5.25;4.45;;;18.60;85.90;;;17.46;73.61;100098.31;12402658;23;96620;-90
2023/06/20 01:08:00;;;;;;;5.40;4.80;;;18.50;86.00;;;17.41;74.23;100108.03;12432915;23;96615;-90
2023/06/20 01:13:07;;;;;;;5.82;4.85;;;18.40;86.50;;;17.34;74.73;100114.28;12434240;23;96398;-89
2023/06/20 01:18:54;;;;;;;4.90;4.22;;;18.30;87.00;;;17.28;74.84;100108.94;12410001;23;96529;-90
2023/06/20 01:24:52;;;;;;;4.53;4.10;;;18.30;87.30;;;17.26;75.97;100116.34;12342450;23;96695;-89
2023/06/20 01:30:03;;;;;;;7.70;5.07;;;18.30;87.80;;;17.21;76.42;100111.63;12349108;23;96463;-90
2023/06/20 01:35:14;;;;;;;5.85;4.93;;;18.20;88.10;;;17.14;76.00;100102.78;12409886;23;96625;-90
2023/06/20 01:40:20;;;;;;;6.88;5.70;;;18.20;88.30;;;17.03;77.65;100104.28;12386231;23;96384;-90
2023/06/20 01:45:30;;;;;;;8.52;5.85;;;18.10;89.00;;;16.94;78.02;100108.22;12386592;23;96388;-90
2023/06/20 01:50:37;;;;;;;10.45;6.22;;;17.90;89.80;;;16.75;79.82;100101.88;12387767;23;96465;-90
2023/06/20 01:55:42;;;;;;;8.73;6.18;;;17.80;90.30;;;16.64;80.46;100099.81;12385916;23;96719;-90
2023/06/20 02:00:46;;;;;;;7.35;6.40;;;17.60;90.70;;;16.50;81.28;100080.25;12386334;23;96405;-90
2023/06/20 02:05:53;;;;;;;7.68;5.90;;;17.50;91.00;;;16.53;81.56;100103.13;12408771;23;96996;-90
2023/06/20 02:10:58;;;;;;;7.18;6.05;;;17.50;91.30;;;16.54;81.88;100110.13;12409544;23;96407;-90
2023/06/20 02:16:06;;;;;;;7.80;5.90;;;17.50;91.50;;;16.52;82.09;100109.53;12386489;23;96476;-90
2023/06/20 02:21:25;;;;;;;6.93;6.03;;;17.50;91.60;;;16.49;82.31;100097.38;12386548;23;96430;-90
2023/06/20 02:26:36;;;;;;;8.55;6.20;;;17.50;91.70;;;16.44;82.85;100115.13;12386260;23;96435;-90
2023/06/20 02:31:45;;;;;;;7.43;5.65;;;17.40;92.00;;;16.39;83.44;100115.75;12391728;23;96701;-90
2023/06/20 02:36:53;;;;;;;8.57;5.82;;;17.40;92.30;;;16.40;83.46;100120.06;12385100;23;96754;-90
2023/06/20 02:41:58;;;;;;;6.95;5.95;;;17.40;92.40;;;16.32;84.08;100107.72;12386668;23;96493;-90
2023/06/20 02:47:19;;;;;;;8.82;6.22;;;17.30;92.60;;;16.33;84.64;100108.53;12385684;23;96523;-89
2023/06/20 02:52:48;;;;;;;10.05;5.88;;;17.30;93.00;;;16.27;84.96;100117.41;12407973;23;96485;-90
2023/06/20 02:57:57;;;;;;;7.90;6.53;;;17.30;93.40;;;16.24;85.54;100125.84;12409660;23;96908;-90
2023/06/20 03:03:13;;;;;;;7.30;5.65;;;17.20;93.60;;;16.16;86.24;100115.34;12386304;23;96583;-91
2023/06/20 03:08:21;;;;;;;6.15;5.25;;;17.20;93.90;;;16.16;87.00;100118.84;12409353;23;96801;-89
2023/06/20 03:13:27;;;;;;;7.45;6.65;;;17.20;94.40;;;16.06;87.91;100113.06;12385876;23;96709;-89
2023/06/20 03:18:30;;;;;;;6.20;4.97;;;17.20;94.80;;;16.17;88.08;100141.09;12408857;23;96364;-90
2023/06/20 03:23:34;;;;;;;6.45;5.72;;;17.20;95.20;;;16.21;88.62;100137.81;12407984;23;96784;-90
2023/06/20 03:28:38;;;;;;;6.97;6.13;;;17.20;95.60;;;16.28;88.67;100138.63;12408899;23;96484;-90
2023/06/20 03:33:42;;;;;;;8.35;7.45;;;17.30;95.90;;;16.35;89.55;100151.22;12386722;23;96580;-89
2023/06/20 03:38:45;;;;;;;8.77;7.47;;;17.30;96.40;;;16.39;90.55;100149.78;12385527;23;96476;-90
2023/06/20 03:43:49;;;;;;;8.90;6.90;;;17.40;97.00;;;16.47;91.25;100154.94;12385577;23;96470;-90
2023/06/20 03:48:52;;;;;;;8.73;6.75;;;17.40;97.60;;;16.62;91.86;100152.88;12432122;23;96645;-90
2023/06/20 03:53:56;;;;;;;11.23;7.13;;;17.60;98.20;;;16.80;92.10;100155.75;12384988;23;96395;-90
2023/06/20 03:59:00;;;;;;;8.38;5.55;;;17.70;98.50;;;17.00;91.88;100154.88;12385283;23;96916;-89
2023/06/20 04:04:04;;;;;;;7.90;5.05;;;17.90;98.60;;;17.18;90.94;100154.19;12407928;23;96449;-91
2023/06/20 04:09:08;;;;;;;6.93;5.72;;;18.20;98.70;;;17.36;90.78;100168.59;12385413;23;96980;-91
2023/06/20 04:14:12;;;;;;;6.35;5.43;;;18.30;98.80;;;17.57;89.90;100163.94;12407429;23;96498;-92
2023/06/20 04:19:17;;;;;;;6.05;5.45;;;18.50;98.80;;;17.75;88.66;100156.03;12383395;23;96797;-91
2023/06/20 04:24:20;;;;;;;8.00;5.18;;;18.70;98.70;;;17.95;87.92;100163.97;12384853;23;96445;-91
2023/06/20 04:29:24;;;;;;;6.25;5.20;;;18.90;98.60;;;18.17;86.68;100161.75;12408359;23;96463;-91
2023/06/20 04:34:28;;;;;;;11.23;6.38;;;19.10;98.40;;;18.31;84.93;100166.00;12408761;23;96606;-90
2023/06/20 04:39:31;;;;;;;8.70;6.30;;;19.30;98.00;;;18.45;83.91;100162.13;12382623;23;96556;-90
2023/06/20 04:44:36;;;;;;;8.38;6.40;;;19.40;97.60;;;18.52;83.45;100153.19;12407064;23;96496;-91
2023/06/20 04:49:40;;;;;;;9.30;6.68;;;19.40;97.50;;;18.58;81.96;100152.31;12407069;23;96642;-91
2023/06/20 04:54:43;;;;;;;8.40;6.25;;;19.60;97.10;;;18.65;81.52;100161.97;12383586;23;97030;-91
2023/06/20 04:59:49;;;;;;;7.72;6.10;;;19.60;97.10;;;18.69;81.06;100163.19;12407217;23;96873;-92
2023/06/20 05:04:53;;;;;;;10.27;6.68;;;19.70;96.90;;;18.77;80.85;100164.75;12383926;23;96880;-90
2023/06/20 05:09:56;;;;;;;8.88;6.70;;;19.70;96.90;;;18.88;79.84;100171.28;12406489;23;96529;-91
2023/06/20 05:15:04;;;;;;;8.40;6.50;;;19.80;96.70;;;19.01;80.31;100175.72;12387076;23;96498;-92
2023/06/20 05:20:08;;;;;;;7.80;6.93;;;19.90;96.90;;;19.18;79.75;100174.06;12386459;23;96393;-92
2023/06/20 05:25:12;;;;;;;11.32;6.75;;;20.10;96.80;;;19.40;80.43;100177.97;12390659;23;96513;-91
2023/06/20 05:30:16;;;;;;;7.25;6.13;;;20.30;96.90;;;19.59;81.13;100172.56;12408709;23;96604;-93
2023/06/20 05:35:20;;;;;;;9.07;5.78;;;20.60;97.10;;;19.91;80.44;100168.63;12385488;23;96635;-91
2023/06/20 05:40:23;;;;;;;5.75;4.97;;;20.80;96.90;;;20.21;78.96;100173.13;12385952;23;96474;-91
2023/06/20 05:45:27;;;;;;;5.75;5.13;;;21.10;96.60;;;20.46;77.15;100181.91;12387053;23;96447;-91
2023/06/20 05:50:32;;;;;;;6.03;5.30;;;21.40;96.10;;;20.66;76.90;100169.94;12386531;23;96792;-91
2023/06/20 05:55:35;;;;;;;6.10;5.50;;;21.60;95.90;;;20.85;74.91;100169.56;12409758;23;96519;-90
2023/06/20 06:00:39;;;;;;;6.07;5.00;;;21.80;95.40;;;21.08;74.31;100170.59;12386365;23;96463;-91
2023/06/20 06:05:43;;;;;;;6.00;5.38;;;22.10;95.20;;;21.35;74.12;100173.63;12387575;23;96591;-91
2023/06/20 06:10:46;;;;;;;6.07;4.75;;;22.30;94.90;;;21.69;71.26;100190.81;12386550;23;96796;-91
2023/06/20 06:15:50;;;;;;;9.25;6.07;;;22.60;94.20;;;21.94;69.88;100203.97;12413475;23;96508;-90
2023/06/20 06:20:59;;;;;;;6.00;5.20;;;22.90;93.50;;;22.09;67.77;100188.06;12396616;23;96461;-91
2023/06/20 06:26:04;;;;;;;6.88;5.43;;;23.00;92.70;;;22.27;67.08;100186.22;12384777;23;96558;-90
2023/06/20 06:31:11;;;;;;;7.05;4.75;;;23.30;92.30;;;22.54;66.27;100183.66;12409421;23;96351;-90
2023/06/20 06:36:16;;;;;;;6.30;5.70;;;23.50;92.00;;;22.75;65.68;100191.03;12410358;23;96517;-91
2023/06/20 06:41:19;;;;;;;7.07;5.03;;;23.80;91.60;;;23.01;64.83;100200.38;12417261;23;96383;-91
2023/06/20 06:46:23;;;;;;;6.78;5.55;;;24.00;91.10;;;23.19;64.60;100186.53;12384930;23;96793;-90
2023/06/20 06:51:27;;;;;;;7.78;5.45;;;24.20;90.80;;;23.38;64.89;100181.63;12406837;23;97052;-91
2023/06/20 06:56:30;;;;;;;6.75;5.20;;;24.40;90.70;;;23.59;63.28;100184.59;12385559;23;96445;-90
2023/06/20 07:01:34;;;;;;;6.32;5.25;;;24.60;90.20;;;23.74;62.99;100185.59;12382343;23;97270;-91
2023/06/20 07:06:38;;;;;;;11.00;5.88;;;24.80;90.00;;;23.95;63.12;100192.06;12385519;23;96880;-90
2023/06/20 07:11:42;;;;;;;6.80;5.15;;;25.00;89.80;;;24.18;63.07;100200.97;12408035;23;96902;-91
2023/06/20 07:16:45;;;;;;;6.53;5.28;;;25.20;89.30;;;24.23;59.79;100190.13;12386351;23;96451;-90
2023/06/20 07:22:07;;;;;;;7.25;5.30;;;25.30;87.50;;;24.40;59.67;100200.91;12391854;23;96918;-91
2023/06/20 07:27:11;;;;;;;5.60;5.00;;;25.40;87.00;;;24.53;58.91;100208.63;12385693;23;96463;-92
2023/06/20 07:32:15;;;;;;;6.22;5.50;;;25.60;85.80;;;24.67;57.94;100211.72;12407796;23;96739;-90
2023/06/20 07:37:19;;;;;;;7.15;5.95;;;25.70;84.50;;;24.87;57.27;100211.03;12385102;23;97227;-90
2023/06/20 07:42:22;;;;;;;6.40;5.13;;;25.90;83.70;;;25.05;55.92;100207.91;12384193;23;97223;-91
2023/06/20 07:47:26;;;;;;;5.50;4.80;;;25.90;83.30;;;25.19;57.61;100206.38;12384819;23;96406;-93
2023/06/20 07:52:32;;;;;;;7.53;5.40;;;26.10;83.90;;;25.35;56.10;100208.06;12408062;23;96881;-90
2023/06/20 07:57:36;;;;;;;6.20;5.18;;;26.30;83.00;;;25.48;56.68;100211.38;12385881;23;96535;-90
2023/06/20 08:02:39;;;;;;;5.75;5.00;;;26.40;82.90;;;25.60;56.69;100210.06;12382413;23;96749;-90
2023/06/20 08:07:43;;;;;;;8.95;5.40;;;26.50;83.00;;;25.70;54.59;100198.41;12383293;23;96493;-92
2023/06/20 08:12:50;;;;;;;5.63;4.60;;;26.70;81.40;;;25.86;55.22;100211.03;12385197;23;96536;-90
2023/06/20 08:17:53;;;;;;;5.93;4.40;;;26.80;81.30;;;25.94;54.89;100203.41;12406986;23;97172;-89
2023/06/20 08:22:57;;;;;;;6.65;5.43;;;26.90;80.60;;;26.08;53.95;100204.50;12384188;23;96816;-89
2023/06/20 08:28:01;;;;;;;9.48;5.47;;;27.10;80.10;;;26.21;53.33;100206.72;12383637;23;96448;-89
2023/06/20 08:33:17;;;;;;;5.93;4.80;;;27.30;79.80;;;26.45;54.13;100198.03;12389001;23;96504;-90
2023/06/20 08:38:21;;;;;;;6.32;5.00;;;27.40;79.80;;;26.54;53.01;100197.22;12384472;23;96428;-90
2023/06/20 08:43:24;;;;;;;8.32;5.82;;;27.50;78.50;;;26.69;53.03;100201.84;12406987;23;96720;-90
2023/06/20 08:48:28;;;;;;;7.25;5.10;;;27.70;78.10;;;26.81;51.38;100201.53;12407502;23;96375;-90
2023/06/20 08:53:33;;;;;;;9.75;5.55;;;27.80;77.30;;;26.85;51.07;100197.97;12383154;23;96587;-90
2023/06/20 08:58:37;;;;;;;6.78;5.22;;;27.80;76.70;;;26.98;48.34;100188.41;12387257;23;96487;-90
2023/06/20 09:03:40;;;;;;;10.20;5.78;;;27.90;74.60;;;27.13;48.35;100187.59;12433943;23;96331;-90
2023/06/20 09:08:45;;;;;;;7.82;5.55;;;28.00;73.40;;;27.21;49.26;100187.00;12387346;23;96385;-90
2023/06/20 09:13:48;;;;;;;7.53;5.68;;;28.10;74.30;;;27.31;46.69;100178.78;12433651;23;96780;-90
2023/06/20 09:18:57;;;;;;;6.65;5.70;;;28.30;72.50;;;27.46;49.22;100188.81;12409224;23;96375;-90
2023/06/20 09:24:06;;;;;;;5.90;5.10;;;28.40;74.70;;;27.71;48.17;100187.94;12387945;23;96338;-91
2023/06/20 09:29:14;;;;;;;8.40;5.85;;;28.60;73.90;;;27.97;46.71;100188.56;12386683;23;96416;-91
2023/06/20 09:34:19;;;;;;;7.15;4.70;;;28.90;72.20;;;28.18;45.92;100186.50;12408031;23;96906;-91
2023/06/20 09:39:23;;;;;;;6.78;4.78;;;29.00;71.40;;;28.30;45.65;100184.22;12386347;23;96484;-90
2023/06/20 09:44:28;;;;;;;6.65;5.07;;;29.20;70.40;;;28.42;44.71;100173.75;12385600;23;96520;-91
2023/06/20 09:49:35;;;;;;;6.22;4.45;;;29.30;69.60;;;28.53;42.63;100185.41;12409604;23;96516;-90
2023/06/20 09:54:48;;;;;;;7.78;5.20;;;29.50;67.00;;;28.68;42.11;100185.28;12386552;23;96470;-90
2023/06/20 09:59:55;;;;;;;6.28;4.80;;;29.60;66.50;;;28.76;42.14;100181.09;12408614;23;96635;-91
2023/06/20 10:05:00;;;;;;;7.93;4.50;;;29.70;65.30;;;28.94;42.80;100172.19;12386088;23;96731;-90
2023/06/20 10:10:04;;;;;;;6.13;5.07;;;29.90;66.10;;;29.16;41.92;100179.88;12438709;23;96580;-90
2023/06/20 10:15:10;;;;;;;6.20;5.22;;;30.10;65.00;;;29.25;41.88;100174.56;12407339;23;96859;-90
2023/06/20 10:20:37;;;;;;;5.82;4.82;;;30.30;64.80;;;29.36;40.08;100167.84;12408591;23;96884;-91
2023/06/20 10:25:52;;;;;;;6.95;5.10;;;30.40;64.00;;;29.51;41.69;100167.69;12386550;23;96820;-91
2023/06/20 10:31:02;;;;;;;6.20;5.25;;;30.50;64.40;;;29.70;41.43;100161.44;12386662;23;96449;-92
2023/06/20 10:36:11;;;;;;;6.65;5.40;;;30.70;64.70;;;29.83;38.41;100158.75;12406266;23;97041;-91
2023/06/20 10:41:27;;;;;;;6.15;4.55;;;30.90;61.60;;;29.86;38.52;100158.13;12384756;23;96827;-90
2023/06/20 10:46:37;;;;;;;6.55;5.20;;;30.90;62.20;;;30.01;39.48;100156.28;12383969;23;96514;-91
2023/06/20 10:51:46;;;;;;;12.55;6.40;;;31.10;61.90;;;30.11;39.31;100151.50;12409066;23;96611;-91
2023/06/20 10:56:50;;;;;;;5.90;5.18;;;31.20;61.10;;;30.21;39.21;100133.25;12385117;23;96833;-92
2023/06/20 11:01:54;;;;;;;8.55;5.72;;;31.30;61.20;;;30.33;37.87;100142.63;12407886;23;96607;-91
2023/06/20 11:07:06;;;;;;;8.90;5.85;;;31.40;59.80;;;30.37;38.14;100137.38;12407485;23;96507;-91
2023/06/20 11:12:09;;;;;;;5.60;4.97;;;31.30;59.80;;;30.45;38.40;100122.13;12432981;23;96598;-91
2023/06/20 11:17:13;;;;;;;5.80;5.10;;;31.40;59.80;;;30.51;37.91;100112.72;12383589;23;96917;-91
2023/06/20 11:22:17;;;;;;;5.25;4.50;;;31.60;59.50;;;30.49;37.88;100123.16;12407636;23;96770;-91
2023/06/20 11:27:22;;;;;;;9.45;5.03;;;31.50;59.50;;;30.59;37.99;100118.31;12406237;23;96467;-91
2023/06/20 11:32:26;;;;;;;6.82;5.13;;;31.60;59.50;;;30.71;38.67;100119.75;12387647;23;96677;-91
2023/06/20 11:37:30;;;;;;;6.43;4.38;;;31.60;59.80;;;30.69;37.88;100100.06;12382052;23;96469;-92
2023/06/20 11:42:35;;;;;;;6.10;5.10;;;31.80;59.50;;;30.84;38.49;100097.84;12385927;23;96613;-94
2023/06/20 11:47:39;;;;;;;7.25;4.90;;;31.80;59.70;;;30.95;37.98;100103.09;12410223;23;96428;-95
2023/06/20 11:52:43;;;;;;;5.63;5.05;;;31.90;59.00;;;30.95;37.02;100095.69;12388231;23;96519;-92
2023/06/20 11:57:47;;;;;;;5.53;4.75;;;32.00;58.70;;;30.90;35.56;100110.34;12387620;23;96472;-90
2023/06/20 12:02:55;;;;;;;9.68;5.40;;;32.00;57.60;;;31.02;36.04;100104.34;12415145;23;96615;-92
2023/06/20 12:07:58;;;;;;;5.88;5.03;;;32.10;57.30;;;31.14;36.10;100090.91;12406791;23;96876;-92
2023/06/20 12:13:06;;;;;;;6.22;4.57;;;32.20;56.80;;;31.24;36.30;100087.13;12384493;23;96395;-94
2023/06/20 12:18:09;;;;;;;7.00;4.82;;;32.40;57.10;;;31.43;35.19;100087.00;12406098;23;96756;-95
2023/06/20 12:23:13;;;;;;;5.00;4.40;;;32.50;56.00;;;31.38;34.38;100081.63;12407665;23;97314;-93
2023/06/20 12:28:17;;;;;;;6.60;5.00;;;32.70;55.50;;;31.53;33.13;100066.72;12385889;23;96480;-94
2023/06/20 12:33:21;;;;;;;6.38;4.70;;;33.20;53.90;;;31.86;33.65;100081.88;12385873;23;96817;-96
2023/06/20 12:38:26;;;;;;;5.47;4.03;;;33.80;53.90;;;32.19;33.51;100074.16;12387210;23;96485;-93
2023/06/20 12:43:29;;;;;;;4.22;3.83;;;34.30;53.40;;;32.66;32.63;100060.81;12409746;23;96799;-90
2023/06/20 12:48:33;;;;;;;5.60;5.00;;;35.00;53.10;;;33.28;31.91;100051.56;12386282;23;96589;-95
2023/06/20 12:53:37;;;;;;;6.78;4.68;;;35.70;51.80;;;33.85;30.84;100048.66;12438334;23;96414;-96
2023/06/20 12:58:40;;;;;;;5.03;4.53;;;36.00;50.00;;;34.02;29.34;100059.69;12385770;23;97049;-91
2023/06/20 13:03:44;;;;;;;6.47;4.55;;;35.80;49.90;;;34.13;29.29;100048.28;12434683;23;96887;-91
2023/06/20 13:08:47;;;;;;;4.97;4.47;;;35.60;49.60;;;34.11;29.27;100045.88;12384394;23;96662;-90
2023/06/20 13:13:51;;;;;;;6.72;4.68;;;35.30;49.40;;;34.00;29.57;100044.59;12386735;23;96380;-95
2023/06/20 13:18:59;;;;;;;4.82;4.22;;;35.20;50.20;;;33.80;29.31;100046.88;12385509;23;96932;-91
2023/06/20 13:24:06;;;;;;;5.18;4.22;;;35.10;50.00;;;33.58;29.04;100044.31;12387774;23;96696;-90
2023/06/20 13:29:14;;;;;;;6.70;4.85;;;35.00;49.30;;;33.25;30.14;100039.25;12410844;23;96400;-91
2023/06/20 13:34:17;;;;;;;6.13;5.10;;;34.70;49.10;;;33.26;29.71;100032.63;12412668;23;96509;-93
2023/06/20 13:39:22;;;;;;;5.20;4.70;;;34.60;48.90;;;33.26;29.79;100042.81;12383197;23;96514;-91
2023/06/20 13:44:26;;;;;;;6.22;4.80;;;34.50;49.00;;;33.20;29.75;100035.84;12411670;23;96497;-91
2023/06/20 13:49:30;;;;;;;5.82;4.60;;;34.40;49.60;;;33.20;30.15;100039.41;12408295;23;96632;-90
2023/06/20 13:54:33;;;;;;;5.22;4.30;;;34.30;49.90;;;33.03;30.60;100040.22;12386291;23;96504;-90
2023/06/20 13:59:37;;;;;;;4.95;4.15;;;34.10;49.90;;;33.06;30.48;100026.94;12385258;23;96952;-90
2023/06/20 14:04:42;;;;;;;6.78;4.75;;;34.10;50.20;;;32.95;29.76;100032.75;12386713;23;96633;-90
2023/06/20 14:09:46;;;;;;;6.60;5.50;;;33.90;49.30;;;32.73;30.13;100030.88;12409698;23;96538;-91
2023/06/20 14:14:50;;;;;;;8.30;7.00;;;33.80;49.70;;;32.68;30.26;100033.78;12385376;23;96468;-91
2023/06/20 14:19:54;;;;;;;6.45;4.88;;;33.70;49.90;;;32.49;30.40;100033.25;12386929;23;96524;-92
2023/06/20 14:24:57;;;;;;;6.00;5.38;;;33.40;49.50;;;32.30;31.14;100040.91;12386633;23;96783;-90
2023/06/20 14:30:01;;;;;;;6.80;5.97;;;33.20;49.90;;;32.05;31.85;100028.66;12385749;23;96801;-92
2023/06/20 14:35:05;;;;;;;5.43;4.82;;;33.00;50.20;;;32.07;31.80;100016.22;12387084;23;96574;-89
2023/06/20 14:40:09;;;;;;;5.05;4.43;;;33.00;51.70;;;32.31;31.65;100015.03;12387260;23;96519;-90
2023/06/20 14:45:13;;;;;;;7.90;4.80;;;33.20;51.10;;;32.46;31.55;100017.38;12387987;23;96820;-91
2023/06/20 14:50:18;;;;;;;6.57;4.88;;;33.40;50.60;;;32.50;31.89;100018.34;12450477;23;96409;-93
2023/06/20 14:55:22;;;;;;;5.22;4.38;;;33.40;50.60;;;32.59;31.19;100018.41;12386169;23;96437;-92
2023/06/20 15:00:25;;;;;;;5.68;4.60;;;33.60;50.20;;;32.79;31.01;100005.97;12385473;23;96464;-92
2023/06/20 15:05:31;;;;;;;7.15;4.70;;;33.90;49.80;;;32.85;29.73;100005.50;12393218;23;96431;-90
2023/06/20 15:10:35;;;;;;;6.93;4.03;;;34.00;49.50;;;32.84;30.50;100005.84;12388751;23;96532;-93
2023/06/20 15:15:39;;;;;;;7.18;5.10;;;33.90;49.60;;;32.85;30.49;99997.25;12386836;23;96425;-93
2023/06/20 15:20:43;;;;;;;8.70;5.35;;;33.90;49.50;;;32.79;29.97;99989.47;12385856;23;96428;-93
2023/06/20 15:25:46;;;;;;;6.40;4.53;;;33.90;49.60;;;32.80;30.30;99986.38;12410225;23;96715;-90
2023/06/20 15:30:50;;;;;;;6.00;4.22;;;34.00;49.40;;;32.80;30.62;99985.59;12408388;23;96837;-91
2023/06/20 15:35:55;;;;;;;5.40;4.28;;;34.10;49.60;;;32.86;30.51;99973.28;12384388;23;96599;-94
2023/06/20 15:40:59;;;;;;;4.88;3.90;;;34.40;49.10;;;32.95;30.27;99966.69;12383252;23;96983;-93
2023/06/20 15:46:04;;;;;;;5.63;4.30;;;34.60;48.80;;;33.05;30.92;99964.75;12384557;23;96455;-94
2023/06/20 15:51:10;;;;;;;6.18;4.47;;;34.70;49.00;;;33.31;29.70;99967.50;12409398;23;96371;-95
2023/06/20 15:56:14;;;;;;;4.50;4.10;;;34.80;48.80;;;33.42;29.38;99977.09;12407677;23;96797;-93
2023/06/20 16:01:18;;;;;;;9.60;4.90;;;34.80;48.60;;;33.53;29.89;99972.88;12385103;23;97436;-91
2023/06/20 16:06:22;;;;;;;8.55;4.72;;;34.60;48.60;;;33.46;29.72;99972.53;12407717;23;96441;-91
2023/06/20 16:11:29;;;;;;;8.13;4.88;;;34.40;48.60;;;33.43;29.74;99973.19;12384708;23;96636;-92
2023/06/20 16:16:32;;;;;;;6.90;4.60;;;34.30;48.40;;;33.19;29.28;99968.97;12407039;23;96426;-91
2023/06/20 16:21:36;;;;;;;5.70;4.70;;;34.10;48.10;;;32.93;30.85;99973.69;12384519;23;96506;-91
2023/06/20 16:26:40;;;;;;;5.55;4.75;;;33.70;48.80;;;32.74;31.24;99974.72;12406911;23;96414;-91
2023/06/20 16:31:44;;;;;;;4.95;4.45;;;33.60;49.40;;;32.52;31.08;99974.88;12404945;23;96366;-91
2023/06/20 16:36:47;;;;;;;5.18;4.68;;;33.30;49.50;;;32.34;31.84;99967.69;12386086;23;96469;-91
2023/06/20 16:41:51;;;;;;;7.15;4.72;;;33.10;50.20;;;32.15;31.85;99979.72;12407639;23;96445;-91
2023/06/20 16:46:55;;;;;;;5.07;4.57;;;33.00;50.40;;;31.93;32.49;99975.09;12405885;23;96527;-90
2023/06/20 16:51:58;;;;;;;5.22;4.38;;;32.80;50.60;;;31.77;34.09;99970.28;12407232;23;96938;-90
2023/06/20 16:57:02;;;;;;;6.53;3.72;;;32.70;52.30;;;31.66;35.25;99965.03;12381078;23;96376;-92
2023/06/20 17:02:06;;;;;;;6.57;4.50;;;32.70;53.30;;;31.57;36.50;99960.63;12427506;23;96804;-89
2023/06/20 17:07:09;;;;;;;11.02;4.60;;;32.60;54.20;;;31.49;36.90;99969.59;12382301;23;96428;-91
2023/06/20 17:12:14;;;;;;;6.93;4.60;;;32.50;54.80;;;31.34;37.54;99970.81;12406939;23;96662;-91
2023/06/20 17:17:17;;;;;;;6.20;4.70;;;32.30;55.60;;;31.18;38.16;99973.06;12407525;23;96660;-91
2023/06/20 17:22:21;;;;;;;6.05;4.10;;;32.10;56.60;;;31.00;38.62;99958.38;12410475;23;96428;-92
2023/06/20 17:27:25;;;;;;;6.80;4.70;;;31.90;56.60;;;30.72;39.50;99967.81;12386175;23;97293;-90
2023/06/20 17:32:29;;;;;;;6.15;4.50;;;31.60;57.60;;;30.43;40.29;99959.91;12392690;23;97041;-91
2023/06/20 17:37:33;;;;;;;5.75;5.05;;;31.30;57.90;;;30.21;40.89;99971.56;12421075;23;96701;-89
2023/06/20 17:42:36;;;;;;;6.03;5.22;;;31.00;58.60;;;29.89;42.71;99973.22;12413019;23;96582;-89
2023/06/20 17:47:40;;;;;;;8.93;5.28;;;30.70;60.00;;;29.62;44.06;99984.09;12384450;23;96604;-89
2023/06/20 17:52:44;;;;;;;7.40;4.97;;;30.40;61.10;;;29.40;45.46;99992.94;12410421;23;96428;-90
2023/06/20 17:57:49;;;;;;;6.88;5.40;;;30.20;62.30;;;29.19;46.45;99971.34;12387535;23;96527;-92
2023/06/20 18:03:04;;;;;;;12.23;5.93;;;30.00;63.20;;;28.93;48.16;99973.63;12390700;23;96525;-89
2023/06/20 18:08:08;;;;;;;8.27;5.68;;;29.70;64.50;;;28.61;49.67;99966.13;12385852;23;97092;-92
2023/06/20 18:13:12;;;;;;;9.90;4.93;;;29.40;65.80;;;28.29;50.66;99983.13;12408711;23;96428;-92
2023/06/20 18:18:16;;;;;;;8.05;5.22;;;29.10;66.70;;;27.95;50.83;99985.97;12385763;23;96539;-89
2023/06/20 18:23:20;;;;;;;10.15;5.45;;;28.80;66.80;;;27.64;50.93;99986.19;12408168;23;96484;-89
2023/06/20 18:28:23;;;;;;;6.88;5.25;;;28.40;67.10;;;27.32;51.11;99984.00;12385035;23;96872;-87
2023/06/20 18:33:27;;;;;;;8.60;5.45;;;28.20;67.30;;;27.02;52.02;99989.63;12384543;23;96668;-87
2023/06/20 18:38:32;;;;;;;7.53;5.63;;;27.80;68.60;;;26.74;53.97;99997.38;12384710;23;96847;-87
2023/06/20 18:43:36;;;;;;;6.85;5.72;;;27.60;69.20;;;26.50;56.10;99999.13;12408476;23;96570;-86
2023/06/20 18:48:40;;;;;;;11.45;5.72;;;27.30;70.70;;;26.28;56.73;100002.97;12385415;23;96888;-86
2023/06/20 18:53:43;;;;;;;9.77;6.05;;;27.10;71.20;;;26.07;58.30;100001.38;12408020;23;96848;-86
2023/06/20 18:58:48;;;;;;;7.70;5.75;;;26.90;72.20;;;25.85;59.06;100018.84;12407961;23;96975;-85
2023/06/20 19:03:53;;;;;;;6.53;5.80;;;26.60;72.50;;;25.62;58.27;100032.97;12383008;23;96931;-86
2023/06/20 19:08:57;;;;;;;8.23;6.00;;;26.40;72.80;;;25.45;59.43;100032.41;12408640;23;97001;-86
2023/06/20 19:14:02;;;;;;;7.65;6.00;;;26.20;73.50;;;25.28;61.33;100041.59;12385106;23;97073;-86
2023/06/20 19:19:06;;;;;;;8.85;5.60;;;26.10;74.50;;;25.10;61.92;100047.53;12385267;23;96729;-86
2023/06/20 19:24:12;;;;;;;10.63;6.35;;;25.80;74.80;;;24.94;61.53;100051.25;12408277;23;96957;-86
2023/06/20 19:29:16;;;;;;;9.90;5.97;;;25.70;75.30;;;24.77;62.39;100046.88;12386136;23;96533;-86
2023/06/20 19:34:23;;;;;;;7.57;6.15;;;25.50;75.70;;;24.63;62.83;100061.19;12383841;23;96539;-86
2023/06/20 19:39:27;;;;;;;7.65;6.28;;;25.40;76.00;;;24.39;63.04;100056.16;12434044;23;96436;-85
2023/06/20 19:44:31;;;;;;;7.30;5.65;;;25.20;76.50;;;24.24;63.28;100069.63;12385708;23;96431;-86
2023/06/20 19:49:35;;;;;;;7.20;5.78;;;25.00;76.70;;;24.01;63.61;100074.31;12407296;23;96542;-88
2023/06/20 19:54:38;;;;;;;8.15;5.70;;;24.80;77.20;;;23.77;63.72;100071.13;12383183;23;96979;-86
2023/06/20 19:59:42;;;;;;;6.85;5.43;;;24.60;77.50;;;23.63;63.89;100078.06;12385278;23;96494;-86
2023/06/20 20:04:45;;;;;;;6.65;5.57;;;24.40;77.90;;;23.55;64.13;100069.53;12385301;23;96455;-86
2023/06/20 20:09:50;;;;;;;8.40;5.90;;;24.30;78.00;;;23.45;65.38;100071.09;12408245;23;96661;-86
2023/06/20 20:14:54;;;;;;;7.43;6.10;;;24.20;78.50;;;23.34;65.74;100080.19;12384958;23;96456;-86
2023/06/20 20:19:58;;;;;;;7.93;5.93;;;24.10;78.90;;;23.21;65.61;100070.56;12432687;23;96959;-86
2023/06/20 20:25:03;;;;;;;10.18;6.63;;;24.00;79.10;;;23.15;66.21;100077.00;12385976;23;96457;-85
2023/06/20 20:30:10;;;;;;;8.27;6.28;;;23.90;79.50;;;23.03;66.82;100073.59;12409584;23;96704;-85
2023/06/20 20:35:15;;;;;;;8.85;5.82;;;23.80;80.10;;;22.91;67.04;100071.00;12383535;23;96747;-85
2023/06/20 20:40:19;;;;;;;10.25;6.38;;;23.70;80.60;;;22.80;68.39;100068.41;12384462;23;96572;-85
2023/06/20 20:45:23;;;;;;;8.55;6.35;;;23.60;81.20;;;22.67;68.44;100066.84;12408335;23;96500;-85
2023/06/20 20:50:26;;;;;;;9.65;6.20;;;23.40;81.60;;;22.51;69.21;100081.25;12410132;23;96538;-85
2023/06/20 20:55:30;;;;;;;8.63;6.07;;;23.30;82.10;;;22.34;70.07;100086.69;12410471;23;96500;-85
2023/06/20 21:00:34;;;;;;;7.88;6.15;;;23.10;82.70;;;22.21;69.98;100082.44;12409155;23;96420;-85